Time;durP1;ratioP1;P1;durP2;ratioP2;P2;SDS_P1;SDS_P2;PMS_P1;PMS_P2;Temp;Humidity;BMP_temperature;BMP_pressure;BME280_temperature;BME280_humidity;BME280_pressure;Samples;Min_cycle;Max_cycle;Signal;HPM_P1;HPM_P2
2023/07/01 00:00:47;;;;;;;16.13;3.63;;;;;;;-144.87;100.00;61487.56;4961328;28;20042;-71
2023/07/01 00:03:13;;;;;;;9.68;3.80;;;;;;;-144.87;100.00;61487.56;4967026;28;20031;-69
2023/07/01 00:05:40;;;;;;;11.07;3.50;;;;;;;-144.87;100.00;61487.56;4965837;28;20031;-70
2023/07/01 00:08:06;;;;;;;12.52;4.07;;;;;;;-144.87;100.00;61487.56;4965793;28;20047;-71
2023/07/01 00:10:32;;;;;;;9.60;3.80;;;;;;;-144.87;100.00;61487.56;4966538;28;20042;-71
2023/07/01 00:12:59;;;;;;;9.77;4.60;;;;;;;-144.87;100.00;61487.56;4966091;28;20058;-70
2023/07/01 00:15:26;;;;;;;13.38;3.95;;;;;;;-144.87;100.00;61487.56;4966182;28;20676;-70
2023/07/01 00:17:54;;;;;;;13.50;4.10;;;;;;;-144.87;100.00;61487.56;4962283;28;20031;-70
2023/07/01 00:20:21;;;;;;;10.23;5.10;;;;;;;-144.87;100.00;61487.56;4966215;28;20141;-71
2023/07/01 00:22:48;;;;;;;12.88;4.28;;;;;;;-144.87;100.00;61487.56;4981405;28;20149;-70
2023/07/01 00:25:14;;;;;;;12.32;4.15;;;;;;;-144.87;100.00;61487.56;4963897;28;20045;-71
2023/07/01 00:27:40;;;;;;;34.60;5.05;;;;;;;-144.87;100.00;61487.56;4964564;28;20035;-70
2023/07/01 00:30:07;;;;;;;13.63;4.28;;;;;;;-144.87;100.00;61487.56;4965614;28;20058;-70
2023/07/01 00:32:33;;;;;;;10.43;5.15;;;;;;;-144.87;100.00;61487.56;4967809;28;20400;-71
2023/07/01 00:34:59;;;;;;;9.60;4.40;;;;;;;-144.87;100.00;61487.56;4963604;28;20061;-71
2023/07/01 00:37:27;;;;;;;14.95;4.78;;;;;;;-144.87;100.00;61487.56;4964383;28;21542;-72
2023/07/01 00:39:53;;;;;;;12.68;5.65;;;;;;;-144.87;100.00;61487.56;4959136;28;20053;-70
2023/07/01 00:42:20;;;;;;;14.05;5.55;;;;;;;-144.87;100.00;61487.56;4948975;28;20177;-70
2023/07/01 00:44:46;;;;;;;10.50;6.07;;;;;;;-144.87;100.00;61487.56;4947610;28;20047;-69
2023/07/01 00:47:13;;;;;;;16.27;7.32;;;;;;;-144.87;100.00;61487.56;4979548;28;20133;-70
2023/07/01 00:49:40;;;;;;;14.10;6.80;;;;;;;-144.87;100.00;61487.56;4963629;28;20130;-70
2023/07/01 00:52:07;;;;;;;18.02;7.68;;;;;;;-144.87;100.00;61487.56;4965918;28;20042;-70
2023/07/01 00:54:35;;;;;;;20.98;7.82;;;;;;;-144.87;100.00;61487.56;4968993;28;20057;-70
2023/07/01 00:57:03;;;;;;;14.55;7.47;;;;;;;-144.87;100.00;61487.56;4969014;28;20496;-70
2023/07/01 00:59:33;;;;;;;16.70;7.43;;;;;;;-144.87;100.00;61487.56;4966237;28;20039;-71
2023/07/01 01:02:15;;;;;;;16.73;7.80;;;;;;;-144.87;100.00;61487.56;4983162;28;20042;-71
2023/07/01 01:05:02;;;;;;;14.25;6.65;;;;;;;-144.87;100.00;61487.56;4976034;28;20023;-70
2023/07/01 01:07:39;;;;;;;13.15;7.10;;;;;;;-144.87;100.00;61487.56;4948525;28;20051;-72
2023/07/01 01:10:18;;;;;;;11.50;6.35;;;;;;;-144.87;100.00;61487.56;4966328;28;20042;-72
2023/07/01 01:12:46;;;;;;;13.93;6.72;;;;;;;-144.87;100.00;61487.56;4967729;28;20035;-72
2023/07/01 01:15:12;;;;;;;16.95;6.90;;;;;;;-144.87;100.00;61487.56;4950184;28;20097;-72
2023/07/01 01:17:41;;;;;;;14.57;7.05;;;;;;;-144.87;100.00;61487.56;4966589;28;20053;-72
2023/07/01 01:20:12;;;;;;;12.15;6.80;;;;;;;-144.87;100.00;61487.56;4967363;28;20515;-71
2023/07/01 01:23:03;;;;;;;16.55;6.65;;;;;;;-144.87;100.00;61487.56;4969130;28;20081;-70
2023/07/01 01:25:49;;;;;;;12.38;6.40;;;;;;;-144.87;100.00;61487.56;4968913;28;20113;-71
2023/07/01 01:28:16;;;;;;;15.68;6.63;;;;;;;-144.87;100.00;61487.56;4968316;28;20027;-71
2023/07/01 01:30:42;;;;;;;15.43;5.97;;;;;;;-144.87;100.00;61487.56;4965868;28;20467;-72
2023/07/01 01:33:08;;;;;;;15.77;5.43;;;;;;;-144.87;100.00;61487.56;4952007;28;20038;-72
2023/07/01 01:35:35;;;;;;;15.07;6.30;;;;;;;-144.87;100.00;61487.56;4969461;28;20042;-71
2023/07/01 01:38:13;;;;;;;9.25;5.50;;;;;;;-144.87;100.00;61487.56;4968408;28;20050;-71
2023/07/01 01:40:45;;;;;;;10.60;5.70;;;;;;;-144.87;100.00;61487.56;4950998;28;20034;-70
2023/07/01 01:43:26;;;;;;;16.60;5.50;;;;;;;-144.87;100.00;61487.56;4963572;28;20105;-72
2023/07/01 01:45:53;;;;;;;12.65;5.78;;;;;;;-144.87;100.00;61487.56;4965791;28;20081;-72
2023/07/01 01:48:19;;;;;;;13.98;5.65;;;;;;;-144.87;100.00;61487.56;4966561;28;20057;-71
2023/07/01 01:50:49;;;;;;;14.02;5.63;;;;;;;-144.87;100.00;61487.56;4967820;28;20031;-70
2023/07/01 01:53:16;;;;;;;16.52;6.10;;;;;;;-144.87;100.00;61487.56;4967963;28;20064;-71
2023/07/01 01:55:42;;;;;;;16.83;6.15;;;;;;;-144.87;100.00;61487.56;4967662;28;20040;-71
2023/07/01 01:58:10;;;;;;;14.50;5.72;;;;;;;-144.87;100.00;61487.56;4970231;28;20034;-70
2023/07/01 02:00:36;;;;;;;14.23;6.13;;;;;;;-144.87;100.00;61487.56;4964642;28;20074;-70
2023/07/01 02:03:03;;;;;;;19.27;6.32;;;;;;;-144.87;100.00;61487.56;4966843;28;20160;-71
2023/07/01 02:05:29;;;;;;;13.63;5.93;;;;;;;-144.87;100.00;61487.56;4967740;28;20508;-71
2023/07/01 02:07:56;;;;;;;15.65;6.20;;;;;;;-144.87;100.00;61487.56;4965977;28;20058;-71
2023/07/01 02:10:23;;;;;;;15.82;6.22;;;;;;;-144.87;100.00;61487.56;4963801;28;20042;-72
2023/07/01 02:12:51;;;;;;;17.20;6.43;;;;;;;-144.87;100.00;61487.56;4966053;28;20106;-72
2023/07/01 02:15:17;;;;;;;25.33;6.72;;;;;;;-144.87;100.00;61487.56;4965066;28;20038;-71
2023/07/01 02:17:44;;;;;;;12.13;5.88;;;;;;;-144.87;100.00;61487.56;4968236;28;20174;-72
2023/07/01 02:20:11;;;;;;;11.70;6.20;;;;;;;-144.87;100.00;61487.56;4968093;28;20117;-71
2023/07/01 02:22:38;;;;;;;13.70;5.85;;;;;;;-144.87;100.00;61487.56;4967859;28;20031;-71
2023/07/01 02:25:05;;;;;;;13.32;6.45;;;;;;;-144.87;100.00;61487.56;4982169;28;20488;-71
2023/07/01 02:27:31;;;;;;;12.13;6.07;;;;;;;-144.87;100.00;61487.56;4961733;28;20034;-71
2023/07/01 02:29:58;;;;;;;16.25;6.70;;;;;;;-144.87;100.00;61487.56;4964694;28;20055;-70
2023/07/01 02:32:25;;;;;;;13.88;6.60;;;;;;;-144.87;100.00;61487.56;4965838;28;20130;-70
2023/07/01 02:34:51;;;;;;;16.00;6.93;;;;;;;-144.87;100.00;61487.56;4963075;28;20066;-72
2023/07/01 02:37:18;;;;;;;17.30;7.10;;;;;;;-144.87;100.00;61487.56;4951733;28;20097;-71
2023/07/01 02:39:46;;;;;;;12.27;6.50;;;;;;;-144.87;100.00;61487.56;4948499;28;20038;-71
2023/07/01 02:42:15;;;;;;;16.88;7.43;;;;;;;-144.87;100.00;61487.56;4963597;28;20489;-72
2023/07/01 02:44:42;;;;;;;12.93;7.43;;;;;;;-144.87;100.00;61487.56;4962343;28;20029;-71
2023/07/01 02:47:08;;;;;;;16.38;6.97;;;;;;;-144.87;100.00;61487.56;4964408;28;20063;-70
2023/07/01 02:49:35;;;;;;;18.55;7.28;;;;;;;-144.87;100.00;61487.56;4979733;28;20043;-70
2023/07/01 02:52:01;;;;;;;17.75;7.95;;;;;;;-144.87;100.00;61487.56;4967597;28;20043;-70
2023/07/01 02:54:28;;;;;;;16.45;7.57;;;;;;;-144.87;100.00;61487.56;4960330;28;20097;-72
2023/07/01 02:56:54;;;;;;;16.48;7.93;;;;;;;-144.87;100.00;61487.56;4950693;28;20194;-71
2023/07/01 02:59:20;;;;;;;14.98;7.63;;;;;;;-144.87;100.00;61487.56;4965019;28;20088;-70
2023/07/01 03:01:47;;;;;;;15.88;7.90;;;;;;;-144.87;100.00;61487.56;4963748;28;20122;-71
2023/07/01 03:04:13;;;;;;;12.32;7.57;;;;;;;-144.87;100.00;61487.56;4964286;28;20568;-72
2023/07/01 03:06:40;;;;;;;18.45;7.82;;;;;;;-144.87;100.00;61487.56;4960325;28;20035;-70
2023/07/01 03:09:07;;;;;;;17.38;7.50;;;;;;;-144.87;100.00;61487.56;4948535;28;20031;-71
2023/07/01 03:11:36;;;;;;;18.38;7.32;;;;;;;-144.87;100.00;61487.56;4965851;28;20038;-71
2023/07/01 03:14:03;;;;;;;14.55;7.68;;;;;;;-144.87;100.00;61487.56;4963697;28;20242;-71
2023/07/01 03:16:32;;;;;;;14.75;8.07;;;;;;;-144.87;100.00;61487.56;4948372;28;20046;-71
2023/07/01 03:18:59;;;;;;;19.38;7.82;;;;;;;-144.87;100.00;61487.56;4962692;28;20046;-70
2023/07/01 03:21:26;;;;;;;12.48;7.00;;;;;;;-144.87;100.00;61487.56;4964117;28;20504;-71
2023/07/01 03:23:52;;;;;;;15.18;8.13;;;;;;;-144.87;100.00;61487.56;4947160;28;20027;-71
2023/07/01 03:26:20;;;;;;;18.67;7.43;;;;;;;-144.87;100.00;61487.56;4942744;28;20067;-71
2023/07/01 03:28:46;;;;;;;12.73;7.32;;;;;;;-144.87;100.00;61487.56;4965688;28;20133;-71
2023/07/01 03:31:12;;;;;;;16.90;8.43;;;;;;;-144.87;100.00;61487.56;4963578;28;20041;-71
2023/07/01 03:33:38;;;;;;;16.17;8.18;;;;;;;-144.87;100.00;61487.56;4962801;28;20038;-69
2023/07/01 03:36:06;;;;;;;14.88;7.45;;;;;;;-144.87;100.00;61487.56;4964518;28;20039;-70
2023/07/01 03:38:32;;;;;;;13.30;7.70;;;;;;;-144.87;100.00;61487.56;4964601;28;20061;-71
2023/07/01 03:40:58;;;;;;;16.30;7.47;;;;;;;-144.87;100.00;61487.56;4966230;28;20039;-70
2023/07/01 03:43:24;;;;;;;14.55;7.90;;;;;;;-144.87;100.00;61487.56;4946345;28;20718;-71
2023/07/01 03:45:51;;;;;;;13.77;7.63;;;;;;;-144.87;100.00;61487.56;4980033;28;20042;-71
2023/07/01 03:48:17;;;;;;;10.55;7.78;;;;;;;-144.87;100.00;61487.56;4963211;28;20049;-70
2023/07/01 03:50:43;;;;;;;15.30;8.32;;;;;;;-144.87;100.00;61487.56;4966546;28;20058;-71
2023/07/01 03:53:09;;;;;;;15.00;9.25;;;;;;;-144.87;100.00;61487.56;4962481;28;20031;-71
2023/07/01 03:55:36;;;;;;;14.38;9.88;;;;;;;-144.87;100.00;61487.56;4962762;28;20043;-71
2023/07/01 03:58:04;;;;;;;14.77;10.32;;;;;;;-144.87;100.00;61487.56;4964282;28;20027;-71
2023/07/01 04:00:30;;;;;;;15.43;11.43;;;;;;;-144.87;100.00;61487.56;4961352;28;20047;-71
2023/07/01 04:03:05;;;;;;;19.02;11.65;;;;;;;-144.87;100.00;61487.56;4979329;28;20101;-71
2023/07/01 04:05:34;;;;;;;19.90;11.75;;;;;;;-144.87;100.00;61487.56;4962152;28;20039;-70
2023/07/01 04:08:01;;;;;;;15.98;12.10;;;;;;;-144.87;100.00;61487.56;4964094;28;20102;-71
2023/07/01 04:10:27;;;;;;;22.38;13.13;;;;;;;-144.87;100.00;61487.56;4961520;28;20074;-71
2023/07/01 04:12:54;;;;;;;23.52;13.18;;;;;;;-144.87;100.00;61487.56;4979777;28;20045;-72
2023/07/01 04:15:20;;;;;;;21.52;13.45;;;;;;;-144.87;100.00;61487.56;4979680;28;20101;-71
2023/07/01 04:17:51;;;;;;;19.00;13.65;;;;;;;-144.87;100.00;61487.56;4966205;28;20115;-72
2023/07/01 04:20:21;;;;;;;19.15;14.02;;;;;;;-144.87;100.00;61487.56;4949402;28;20117;-71
2023/07/01 04:22:47;;;;;;;16.73;14.77;;;;;;;-144.87;100.00;61487.56;4966723;28;20031;-71
2023/07/01 04:25:14;;;;;;;20.80;15.85;;;;;;;-144.87;100.00;61487.56;4964670;28;20134;-70
2023/07/01 04:27:43;;;;;;;18.83;16.67;;;;;;;-144.87;100.00;61487.56;4957807;28;20294;-70
2023/07/01 04:30:12;;;;;;;23.65;16.13;;;;;;;-144.87;100.00;61487.56;4957316;28;20178;-70
2023/07/01 04:32:38;;;;;;;21.95;17.13;;;;;;;-144.87;100.00;61487.56;4973214;28;20049;-71
2023/07/01 04:35:05;;;;;;;23.80;18.83;;;;;;;-144.87;100.00;61487.56;4962652;28;20122;-70
2023/07/01 04:37:31;;;;;;;23.08;19.70;;;;;;;-144.87;100.00;61487.56;4966376;28;20045;-71
2023/07/01 04:39:58;;;;;;;27.15;21.15;;;;;;;-144.87;100.00;61487.56;4967918;28;20110;-70
2023/07/01 04:42:24;;;;;;;28.63;21.90;;;;;;;-144.87;100.00;61487.56;4967065;28;20035;-70
2023/07/01 04:44:56;;;;;;;26.52;21.63;;;;;;;-144.87;100.00;61487.56;4963939;28;20168;-71
2023/07/01 04:47:23;;;;;;;28.25;22.55;;;;;;;-144.87;100.00;61487.56;4973139;28;20133;-71
2023/07/01 04:49:52;;;;;;;30.05;23.50;;;;;;;-144.87;100.00;61487.56;4964872;28;20393;-70
2023/07/01 04:52:22;;;;;;;34.08;24.20;;;;;;;-144.87;100.00;61487.56;4969346;28;20050;-72
2023/07/01 04:54:48;;;;;;;35.92;23.45;;;;;;;-144.87;100.00;61487.56;4963610;28;20121;-71
2023/07/01 04:57:15;;;;;;;30.42;23.75;;;;;;;-144.87;100.00;61487.56;4964737;28;20034;-72
2023/07/01 04:59:41;;;;;;;35.08;24.13;;;;;;;-144.87;100.00;61487.56;4967616;28;20034;-72
2023/07/01 05:02:08;;;;;;;30.17;24.65;;;;;;;-144.87;100.00;61487.56;4967625;28;20118;-72
2023/07/01 05:04:36;;;;;;;30.77;23.60;;;;;;;-144.87;100.00;61487.56;4984090;28;20543;-71
2023/07/01 05:07:03;;;;;;;29.88;24.35;;;;;;;-144.87;100.00;61487.56;4971380;28;20062;-71
2023/07/01 05:09:29;;;;;;;31.27;23.85;;;;;;;-144.87;100.00;61487.56;4965184;28;20038;-71
2023/07/01 05:11:55;;;;;;;29.23;23.83;;;;;;;-144.87;100.00;61487.56;4966377;28;20035;-71
2023/07/01 05:14:21;;;;;;;29.90;23.30;;;;;;;-144.87;100.00;61487.56;4964946;28;20053;-71
2023/07/01 05:16:48;;;;;;;31.20;23.55;;;;;;;-144.87;100.00;61487.56;4968300;28;20027;-71
2023/07/01 05:19:14;;;;;;;33.67;22.98;;;;;;;-144.87;100.00;61487.56;4966292;28;20031;-71
2023/07/01 05:21:52;;;;;;;32.97;23.70;;;;;;;-144.87;100.00;61487.56;4968175;28;20034;-70
2023/07/01 05:24:18;;;;;;;32.97;23.10;;;;;;;-144.87;100.00;61487.56;4958185;28;20031;-70
2023/07/01 05:26:51;;;;;;;28.48;22.35;;;;;;;-144.87;100.00;61487.56;4976654;28;20089;-70
2023/07/01 05:29:24;;;;;;;32.95;22.77;;;;;;;-144.87;100.00;61487.56;4962922;28;20129;-70
2023/07/01 05:31:52;;;;;;;26.23;21.98;;;;;;;-144.87;100.00;61487.56;4967054;28;20035;-70
2023/07/01 05:34:18;;;;;;;32.08;22.83;;;;;;;-144.87;100.00;61487.56;4973251;28;20038;-70
2023/07/01 05:36:44;;;;;;;27.17;22.02;;;;;;;-144.87;100.00;61487.56;4976050;28;20042;-71
2023/07/01 05:39:12;;;;;;;31.80;23.00;;;;;;;-144.87;100.00;61487.56;4969868;28;20042;-71
2023/07/01 05:41:40;;;;;;;29.30;22.35;;;;;;;-144.87;100.00;61487.56;4968808;28;20038;-72
2023/07/01 05:44:06;;;;;;;27.58;23.33;;;;;;;-144.87;100.00;61487.56;4970363;28;20038;-71
2023/07/01 05:46:32;;;;;;;34.92;23.02;;;;;;;-144.87;100.00;61487.56;4966726;28;20042;-72
2023/07/01 05:49:05;;;;;;;31.20;24.38;;;;;;;-144.87;100.00;61487.56;4960054;28;20094;-73
2023/07/01 05:51:34;;;;;;;30.60;23.15;;;;;;;-144.87;100.00;61487.56;4973370;28;20099;-72
2023/07/01 05:54:00;;;;;;;30.92;23.10;;;;;;;-144.87;100.00;61487.56;4965763;28;20042;-72
2023/07/01 05:56:26;;;;;;;34.25;24.77;;;;;;;-144.87;100.00;61487.56;4962912;28;20035;-72
2023/07/01 05:58:52;;;;;;;31.67;24.60;;;;;;;-144.87;100.00;61487.56;4948926;28;20043;-72
2023/07/01 06:01:19;;;;;;;33.78;26.05;;;;;;;-144.87;100.00;61487.56;4968414;28;20158;-74
2023/07/01 06:04:07;;;;;;;34.92;23.60;;;;;;;-144.87;100.00;61487.56;4969661;28;20030;-72
2023/07/01 06:06:34;;;;;;;33.00;23.65;;;;;;;-144.87;100.00;61487.56;4980904;28;20148;-72
2023/07/01 06:09:00;;;;;;;32.22;23.70;;;;;;;-144.87;100.00;61487.56;4969095;28;20053;-72
2023/07/01 06:11:27;;;;;;;32.20;23.42;;;;;;;-144.87;100.00;61487.56;4951535;28;20117;-72
2023/07/01 06:13:53;;;;;;;36.55;24.10;;;;;;;-144.87;100.00;61487.56;4964939;28;20129;-73
2023/07/01 06:16:21;;;;;;;30.30;23.30;;;;;;;-144.87;100.00;61487.56;4951485;28;20027;-72
2023/07/01 06:18:49;;;;;;;29.52;23.75;;;;;;;-144.87;100.00;61487.56;4963325;28;20054;-71
2023/07/01 06:21:15;;;;;;;35.75;22.27;;;;;;;-144.87;100.00;61487.56;4967687;28;20034;-71
2023/07/01 06:23:42;;;;;;;31.67;25.58;;;;;;;-144.87;100.00;61487.56;4953736;28;20090;-71
2023/07/01 06:26:08;;;;;;;25.30;20.25;;;;;;;-144.87;100.00;61487.56;4934015;28;20034;-72
2023/07/01 06:28:34;;;;;;;23.83;20.42;;;;;;;-144.87;100.00;61487.56;4966811;28;20039;-73
2023/07/01 06:31:01;;;;;;;25.55;19.42;;;;;;;-144.87;100.00;61487.56;4928275;28;20043;-71
2023/07/01 06:33:27;;;;;;;20.73;18.30;;;;;;;-144.87;100.00;61487.56;4944327;28;20046;-72
2023/07/01 06:35:53;;;;;;;23.88;18.40;;;;;;;-144.87;100.00;61487.56;4962315;28;20035;-76
2023/07/01 06:38:20;;;;;;;25.15;20.08;;;;;;;-144.87;100.00;61487.56;4962888;28;20061;-72
2023/07/01 06:40:46;;;;;;;26.15;19.88;;;;;;;-144.87;100.00;61487.56;4963270;28;20050;-72
2023/07/01 06:43:12;;;;;;;21.75;19.25;;;;;;;-144.87;100.00;61487.56;4970289;28;20527;-71
2023/07/01 06:45:38;;;;;;;27.13;18.23;;;;;;;-144.87;100.00;61487.56;4940692;28;20782;-71
2023/07/01 06:48:05;;;;;;;22.70;18.52;;;;;;;-144.87;100.00;61487.56;4970240;28;20102;-71
2023/07/01 06:50:31;;;;;;;25.05;18.80;;;;;;;-144.87;100.00;61487.56;4945101;28;20106;-70
2023/07/01 06:52:57;;;;;;;20.25;17.55;;;;;;;-144.87;100.00;61487.56;4972112;28;20042;-71
2023/07/01 06:55:24;;;;;;;23.15;18.52;;;;;;;-144.87;100.00;61487.56;4968287;28;20038;-70
2023/07/01 06:57:50;;;;;;;20.90;17.27;;;;;;;-144.87;100.00;61487.56;4952312;28;20042;-70
2023/07/01 07:00:17;;;;;;;23.48;18.05;;;;;;;-144.87;100.00;61487.56;4962130;28;20118;-71
2023/07/01 07:02:43;;;;;;;21.40;16.88;;;;;;;-144.87;100.00;61487.56;4969341;28;20419;-71
2023/07/01 07:05:10;;;;;;;20.50;16.90;;;;;;;-144.87;100.00;61487.56;4964848;28;20038;-73
2023/07/01 07:07:36;;;;;;;20.80;17.50;;;;;;;-144.87;100.00;61487.56;4970726;28;20058;-70
2023/07/01 07:10:03;;;;;;;21.40;17.60;;;;;;;-144.87;100.00;61487.56;4962382;28;20102;-71
2023/07/01 07:12:29;;;;;;;23.02;16.23;;;;;;;-144.87;100.00;61487.56;4947620;28;20058;-71
2023/07/01 07:14:55;;;;;;;21.92;15.82;;;;;;;-144.87;100.00;61487.56;4965855;28;20041;-71
2023/07/01 07:17:22;;;;;;;21.25;16.20;;;;;;;-144.87;100.00;61487.56;4953152;28;20058;-71
2023/07/01 07:19:49;;;;;;;24.00;16.00;;;;;;;-144.87;100.00;61487.56;4965364;28;20205;-71
2023/07/01 07:22:15;;;;;;;19.88;14.93;;;;;;;-144.87;100.00;61487.56;4968928;28;20031;-72
2023/07/01 07:24:42;;;;;;;17.85;15.35;;;;;;;-144.87;100.00;61487.56;4966638;28;20140;-72
2023/07/01 07:27:08;;;;;;;19.48;15.73;;;;;;;-144.87;100.00;61487.56;4965597;28;20449;-72
2023/07/01 07:29:34;;;;;;;21.85;16.63;;;;;;;-144.87;100.00;61487.56;4968348;28;20093;-71
2023/07/01 07:32:02;;;;;;;20.13;15.55;;;;;;;-144.87;100.00;61487.56;4965961;28;20488;-74
2023/07/01 07:34:29;;;;;;;21.38;15.98;;;;;;;-144.87;100.00;61487.56;4967624;28;20046;-74
2023/07/01 07:36:56;;;;;;;20.77;15.02;;;;;;;-144.87;100.00;61487.56;4967278;28;20043;-76
2023/07/01 07:39:22;;;;;;;18.40;14.30;;;;;;;-144.87;100.00;61487.56;4968275;28;20031;-69
2023/07/01 07:41:49;;;;;;;18.33;14.27;;;;;;;-144.87;100.00;61487.56;4969736;28;20065;-71
2023/07/01 07:44:16;;;;;;;17.52;13.90;;;;;;;-144.87;100.00;61487.56;4982573;28;20031;-71
2023/07/01 07:46:43;;;;;;;18.25;14.57;;;;;;;-144.87;100.00;61487.56;4967386;28;20035;-75
2023/07/01 07:49:09;;;;;;;17.58;13.57;;;;;;;-144.87;100.00;61487.56;4949680;28;20031;-71
2023/07/01 07:51:36;;;;;;;16.17;13.10;;;;;;;-144.87;100.00;61487.56;4951049;28;20027;-72
2023/07/01 07:54:03;;;;;;;15.77;12.57;;;;;;;-144.87;100.00;61487.56;4967245;28;20046;-71
2023/07/01 07:56:29;;;;;;;18.38;12.68;;;;;;;-144.87;100.00;61487.56;4963995;28;20081;-72
2023/07/01 07:58:55;;;;;;;14.45;11.30;;;;;;;-144.87;100.00;61487.56;4963342;28;20027;-71
2023/07/01 08:01:22;;;;;;;13.88;11.60;;;;;;;-144.87;100.00;61487.56;4968633;28;20039;-71
2023/07/01 08:03:48;;;;;;;14.00;11.52;;;;;;;-144.87;100.00;61487.56;4953599;28;20108;-71
2023/07/01 08:06:14;;;;;;;13.60;10.35;;;;;;;-144.87;100.00;61487.56;4973795;28;20401;-71
2023/07/01 08:08:41;;;;;;;13.15;9.75;;;;;;;-144.87;100.00;61487.56;4964743;28;20043;-71
2023/07/01 08:11:07;;;;;;;12.23;9.15;;;;;;;-144.87;100.00;61487.56;4965508;28;20050;-71
2023/07/01 08:13:33;;;;;;;11.63;9.80;;;;;;;-144.87;100.00;61487.56;4967767;28;20129;-70
2023/07/01 08:15:59;;;;;;;11.90;9.48;;;;;;;-144.87;100.00;61487.56;4950780;28;20034;-72
2023/07/01 08:18:26;;;;;;;11.23;9.00;;;;;;;-144.87;100.00;61487.56;4962498;28;20042;-71
2023/07/01 08:20:52;;;;;;;9.23;7.93;;;;;;;-144.87;100.00;61487.56;4965225;28;20035;-70
2023/07/01 08:23:18;;;;;;;10.90;8.50;;;;;;;-144.87;100.00;61487.56;4962911;28;20065;-72
2023/07/01 08:25:44;;;;;;;9.30;7.57;;;;;;;-144.87;100.00;61487.56;4965416;28;20099;-70
2023/07/01 08:28:11;;;;;;;11.93;8.70;;;;;;;-144.87;100.00;61487.56;4969958;28;20139;-70
2023/07/01 08:30:39;;;;;;;8.40;7.07;;;;;;;-144.87;100.00;61487.56;4970395;28;20050;-71
2023/07/01 08:33:07;;;;;;;9.70;7.65;;;;;;;-144.87;100.00;61487.56;4970283;28;20038;-70
2023/07/01 08:35:40;;;;;;;10.82;7.18;;;;;;;-144.87;100.00;61487.56;4985046;28;20728;-70
2023/07/01 08:38:07;;;;;;;7.65;6.25;;;;;;;-144.87;100.00;61487.56;4966286;28;20038;-71
2023/07/01 08:40:33;;;;;;;8.32;6.70;;;;;;;-144.87;100.00;61487.56;4950643;28;20042;-71
2023/07/01 08:43:03;;;;;;;10.90;6.35;;;;;;;-144.87;100.00;61487.56;4963741;28;20031;-71
2023/07/01 08:45:31;;;;;;;8.65;6.90;;;;;;;-144.87;100.00;61487.56;4967641;28;20055;-71
2023/07/01 08:48:00;;;;;;;6.60;5.50;;;;;;;-144.87;100.00;61487.56;4964990;28;20129;-71
2023/07/01 08:50:52;;;;;;;6.10;5.40;;;;;;;-144.87;100.00;61487.56;4966736;28;20047;-71
2023/07/01 08:53:19;;;;;;;8.20;5.38;;;;;;;-144.87;100.00;61487.56;4970068;28;20118;-73
2023/07/01 08:55:46;;;;;;;6.60;5.68;;;;;;;-144.87;100.00;61487.56;4972726;28;20027;-72
2023/07/01 08:58:13;;;;;;;6.30;5.70;;;;;;;-144.87;100.00;61487.56;4966681;28;20027;-71
2023/07/01 09:00:40;;;;;;;7.32;6.13;;;;;;;-144.87;100.00;61487.56;4967535;28;20047;-72
2023/07/01 09:03:07;;;;;;;8.68;6.20;;;;;;;-144.87;100.00;61487.56;4969031;28;20050;-72
2023/07/01 09:05:33;;;;;;;7.88;6.25;;;;;;;-144.87;100.00;61487.56;4968595;28;20058;-72
2023/07/01 09:07:59;;;;;;;7.78;6.50;;;;;;;-144.87;100.00;61487.56;4952016;28;20066;-74
2023/07/01 09:10:26;;;;;;;6.38;5.70;;;;;;;-144.87;100.00;61487.56;4970320;28;20732;-77
2023/07/01 09:12:52;;;;;;;8.15;6.40;;;;;;;-144.87;100.00;61487.56;4967157;28;20039;-74
2023/07/01 09:15:19;;;;;;;6.95;6.10;;;;;;;-144.87;100.00;61487.56;4971109;28;20097;-72
2023/07/01 09:17:45;;;;;;;6.65;5.95;;;;;;;-144.87;100.00;61487.56;4969258;28;20385;-71
2023/07/01 09:20:13;;;;;;;8.13;6.93;;;;;;;-144.87;100.00;61487.56;4970113;28;20046;-72
2023/07/01 09:22:41;;;;;;;7.82;6.50;;;;;;;-144.87;100.00;61487.56;4972166;28;20034;-72
2023/07/01 09:25:07;;;;;;;8.18;6.28;;;;;;;-144.87;100.00;61487.56;4955059;29;20123;-72
2023/07/01 09:27:48;;;;;;;10.45;6.43;;;;;;;-144.87;100.00;61487.56;4960976;28;20046;-72
2023/07/01 09:30:27;;;;;;;6.53;5.88;;;;;;;-144.87;100.00;61487.56;4967892;28;20046;-72
2023/07/01 09:33:13;;;;;;;9.55;6.07;;;;;;;-144.87;100.00;61487.56;4966762;28;20038;-72
2023/07/01 09:35:41;;;;;;;6.57;5.70;;;;;;;-144.87;100.00;61487.56;4968541;28;20046;-72
2023/07/01 09:38:08;;;;;;;7.30;6.40;;;;;;;-144.87;100.00;61487.56;4966201;28;20042;-71
2023/07/01 09:40:34;;;;;;;7.40;5.75;;;;;;;-144.87;100.00;61487.56;4974907;28;20814;-73
2023/07/01 09:43:00;;;;;;;7.60;6.45;;;;;;;-144.87;100.00;61487.56;4965191;28;20082;-73
2023/07/01 09:45:27;;;;;;;6.13;5.50;;;;;;;-144.87;100.00;61487.56;4966978;28;20038;-74
2023/07/01 09:47:53;;;;;;;7.65;5.78;;;;;;;-144.87;100.00;61487.56;4968919;28;20595;-72
2023/07/01 09:50:29;;;;;;;8.13;5.95;;;;;;;-144.87;100.00;61487.56;4966017;28;20086;-73
2023/07/01 09:52:55;;;;;;;6.32;5.50;;;;;;;-144.87;100.00;61487.56;4970817;28;20031;-72
2023/07/01 09:55:23;;;;;;;4.30;3.80;;;;;;;-144.87;100.00;61487.56;4952509;28;20031;-74
2023/07/01 09:57:49;;;;;;;4.35;3.95;;;;;;;-144.87;100.00;61487.56;4962435;28;20130;-73
2023/07/01 10:00:27;;;;;;;8.45;4.53;;;;;;;-144.87;100.00;61487.56;4977683;28;20058;-73
2023/07/01 10:02:56;;;;;;;6.47;4.70;;;;;;;-144.87;100.00;61487.56;4963856;28;20468;-73
2023/07/01 10:05:22;;;;;;;8.55;6.00;;;;;;;-144.87;100.00;61487.56;4963379;28;20298;-74
2023/07/01 10:07:48;;;;;;;7.22;5.22;;;;;;;-144.87;100.00;61487.56;4952047;28;20069;-73
2023/07/01 10:10:17;;;;;;;8.80;5.63;;;;;;;-144.87;100.00;61487.56;4972254;28;20196;-75
2023/07/01 10:12:44;;;;;;;10.05;6.13;;;;;;;-144.87;100.00;61487.56;4957997;28;20038;-78
2023/07/01 10:15:12;;;;;;;7.28;5.70;;;;;;;-144.87;100.00;61487.56;4974239;28;20136;-73
2023/07/01 10:17:46;;;;;;;8.77;6.13;;;;;;;-144.87;100.00;61487.56;4969649;28;20419;-74
2023/07/01 10:20:39;;;;;;;9.40;6.55;;;;;;;-144.87;100.00;61487.56;4969413;28;20041;-72
2023/07/01 10:23:05;;;;;;;10.38;7.25;;;;;;;-144.87;100.00;61487.56;4966991;28;20055;-73
2023/07/01 10:25:36;;;;;;;11.23;7.68;;;;;;;-144.87;100.00;61487.56;4965211;28;20180;-76
2023/07/01 10:28:03;;;;;;;10.25;8.30;;;;;;;-144.87;100.00;61487.56;4949889;28;20120;-71
2023/07/01 10:30:42;;;;;;;10.35;7.80;;;;;;;-144.87;100.00;61487.56;4962426;28;20051;-70
2023/07/01 10:33:27;;;;;;;9.82;7.82;;;;;;;-144.87;100.00;61487.56;4969984;28;20042;-73
2023/07/01 10:36:10;;;;;;;14.30;8.23;;;;;;;-144.87;100.00;61487.56;4970877;28;20439;-73
2023/07/01 10:38:38;;;;;;;14.77;10.30;;;;;;;-144.87;100.00;61487.56;4961041;28;20456;-73
2023/07/01 10:41:05;;;;;;;17.15;10.60;;;;;;;-144.87;100.00;61487.56;4965562;28;20082;-73
2023/07/01 10:43:33;;;;;;;15.15;10.40;;;;;;;-144.87;100.00;61487.56;4969769;28;20097;-72
2023/07/01 10:46:24;;;;;;;16.20;9.90;;;;;;;-144.87;100.00;61487.56;4962805;28;20058;-72
2023/07/01 10:49:02;;;;;;;;;;;;;;;-144.87;100.00;61487.56;4969564;28;20437;-73
2023/07/01 10:52:02;;;;;;;16.27;10.23;;;;;;;-144.87;100.00;61487.56;4967564;28;19921;-73
2023/07/01 10:54:35;;;;;;;14.10;10.43;;;;;;;-144.87;100.00;61487.56;4952546;28;20050;-73
2023/07/01 10:57:17;;;;;;;15.65;10.52;;;;;;;-144.87;100.00;61487.56;4975017;28;20030;-74
2023/07/01 10:59:43;;;;;;;16.55;10.40;;;;;;;-144.87;100.00;61487.56;4973889;28;20046;-78
2023/07/01 11:02:10;;;;;;;17.73;10.88;;;;;;;-144.87;100.00;61487.56;4966804;28;20165;-71
2023/07/01 11:04:52;;;;;;;14.15;9.65;;;;;;;-144.87;100.00;61487.56;4969453;28;20046;-72